• Join FlightAware (Why Join?)
  • Login
  • US Flag 
05:12AM EDT


 

Airport Tracker/Info


-or-


 

Live Flight TrackerFlight Track Log ✈ UPS1122 ✈ 05-Jun-2013 ✈ KPHL - KBDL

Flight Track Log - Related Links

Times and Time Zones

All times are in EDT time to prevent confusion due to time zone crossing. See the UPS1122 flight status page for this flight to view local times or setup timezone preferences in your user account.

Time Position Orientation Groundspeed Altitude Reporting Facility
EDT Latitude Longitude Course Direction KTS MPH feet Rate Location/Type
03:35AM 39.8623 -75.2673 252° West 163 188 600  Level FlightAware ADS-B
03:35AM 39.8612 -75.2709 248° West 170 196 700 2,280 Climbing FlightAware ADS-B
03:35AM 39.8578 -75.2803 245° Southwest 185 213 1,100 2,100 Climbing FlightAware ADS-B
03:35AM 39.8545 -75.2889 243° Southwest 197 227 1,300 1,500 Climbing FlightAware ADS-B
03:35AM 39.8493 -75.3017 242° Southwest 211 243 1,600 2,040 Climbing FlightAware ADS-B
03:36AM 39.8425 -75.3187 242° Southwest 222 255 2,200 2,820 Climbing FlightAware ADS-B
03:36AM 39.8389 -75.3270 241° Southwest 224 258 2,600 3,780 Climbing FlightAware ADS-B
03:36AM 39.8367 -75.3315 238° Southwest 222 255 2,900 3,720 Climbing FlightAware ADS-B
03:36AM 39.8345 -75.3346 227° Southwest 220 253 3,100 3,420 Climbing FlightAware ADS-B
03:36AM 39.8321 -75.3376 224° Southwest 219 252 3,300 3,420 Climbing FlightAware ADS-B
03:36AM 39.8287 -75.3405 213° Southwest 220 253 3,500 3,420 Climbing FlightAware ADS-B
03:36AM 39.8257 -75.3426 208° Southwest 222 255 3,700 3,000 Climbing FlightAware ADS-B
03:36AM 39.8226 -75.3441 200° South 225 259 3,800 1,980 Climbing FlightAware ADS-B
03:36AM 39.8194 -75.3452 195° South 228 262 3,900 1,980 Climbing FlightAware ADS-B
03:36AM 39.8162 -75.3459 190° South 231 266 4,000 2,520 Climbing FlightAware ADS-B
03:36AM 39.8122 -75.3461 182° South 235 270 4,200 2,520 Climbing FlightAware ADS-B
03:36AM 39.8086 -75.3456 174° South 238 274 4,300 2,520 Climbing FlightAware ADS-B
03:36AM 39.8049 -75.3446 168° South 240 276 4,500 2,520 Climbing FlightAware ADS-B
03:36AM 39.8015 -75.3431 161° South 241 277 4,600 3,000 Climbing FlightAware ADS-B
03:36AM 39.7986 -75.3412 153° Southeast 242 278 4,800 3,000 Climbing FlightAware ADS-B
03:36AM 39.7950 -75.3383 148° Southeast 242 278 4,900 2,520 Climbing FlightAware ADS-B
03:37AM 39.7924 -75.3354 139° Southeast 243 280 5,100 3,420 Climbing FlightAware ADS-B
03:37AM 39.7899 -75.3321 135° Southeast 244 281 5,300 3,000 Climbing FlightAware ADS-B
03:37AM 39.7875 -75.3281 128° Southeast 247 284 5,400 1,680 Climbing FlightAware ADS-B
03:37AM 39.7855 -75.3238 121° Southeast 251 289 5,500 1,680 Climbing FlightAware ADS-B
03:37AM 39.7837 -75.3187 115° Southeast 256 295 5,600 1,680 Climbing FlightAware ADS-B
03:37AM 39.7823 -75.3135 109° East 262 302 5,700 1,500 Climbing FlightAware ADS-B
03:37AM 39.7812 -75.3071 103° East 268 308 5,800 1,680 Climbing FlightAware ADS-B
03:37AM 39.7806 -75.3013 98° East 272 313 5,900 1,680 Climbing FlightAware ADS-B
03:37AM 39.7804 -75.2959 93° East 275 316 6,000 2,520 Climbing FlightAware ADS-B
03:37AM 39.7804 -75.2901 90° East 277 319 6,200 3,960 Climbing FlightAware ADS-B
03:37AM 39.7806 -75.2849 87° East 277 319 6,400 3,120 Climbing FlightAware ADS-B
03:37AM 39.7823 -75.2623 84° East 278 320 7,100 2,880 Climbing FlightAware ADS-B
03:38AM 39.7837 -75.2363 86° East 285 328 7,800 2,760 Climbing FlightAware ADS-B
03:38AM 39.7843 -75.2144 88° East 290 334 8,400 3,000 Climbing FlightAware ADS-B
03:38AM 39.7851 -75.1877 88° East 291 335 9,200 2,880 Climbing FlightAware ADS-B
03:38AM 39.7858 -75.1600 88° East 296 341 9,900 1,920 Climbing FlightAware ADS-B
03:39AM 39.7873 -75.1039 88° East 328 377 10,700 1,440 Climbing FlightAware ADS-B
03:39AM 39.7891 -75.0392 88° East 362 417 11,400 1,080 Climbing FlightAware ADS-B
03:40AM 39.7902 -74.9717 89° East 372 428 11,800 1,380 Climbing FlightAware ADS-B
03:40AM 39.7899 -74.9054 90° East 362 417 12,800 1,860 Climbing FlightAware ADS-B
03:41AM 39.7899 -74.8514 90° East 376 433 13,500 1,800 Climbing FlightAware ADS-B
03:41AM 39.7928 -74.7814 87° East 391 450 14,500 1,920 Climbing FlightAware ADS-B
03:41AM 39.7941 -74.7602 85° East 391 450 14,800 2,160 Climbing FlightAware ADS-B
03:42AM 39.7987 -74.7361 76° East 389 448 15,200 2,460 Climbing FlightAware ADS-B
03:42AM 39.8040 -74.7208 66° East 387 445 15,500 2,280 Climbing FlightAware ADS-B
03:42AM 39.8091 -74.7105 57° Northeast 386 444 15,700 1,620 Climbing FlightAware ADS-B
03:42AM 39.8147 -74.7014 51° Northeast 385 443 15,800 1,680 Climbing FlightAware ADS-B
03:42AM 39.8265 -74.6871 43° Northeast 383 441 16,100 2,460 Climbing FlightAware ADS-B
03:42AM 39.8317 -74.6821 36° Northeast 383 441 16,300 1,740 Climbing FlightAware ADS-B
03:43AM 39.8781 -74.6425 33° Northeast 397 457 17,100 1,680 Climbing FlightAware ADS-B
03:43AM 39.9184 -74.6059 35° Northeast 407 468 17,900 1,740 Climbing FlightAware ADS-B
03:44AM 39.9726 -74.5552 36° Northeast 418 481 18,900 1,740 Climbing FlightAware ADS-B
03:44AM 40.0207 -74.5105 35° Northeast 427 491 19,800 1,860 Climbing FlightAware ADS-B
03:45AM 40.0706 -74.4645 35° Northeast 430 495 20,800 1,140 Climbing FlightAware ADS-B
03:45AM 40.1191 -74.4200 35° Northeast 426 490 21,000 180 Climbing FlightAware ADS-B
03:46AM 40.1682 -74.3749 35° Northeast 433 498 21,000  Level FlightAware ADS-B
03:46AM 40.2186 -74.3283 35° Northeast 434 499 21,000  Level FlightAware ADS-B
03:47AM 40.2684 -74.2821 35° Northeast 433 498 21,000  Level FlightAware ADS-B
03:47AM 40.3181 -74.2359 35° Northeast 433 498 21,000  Level FlightAware ADS-B
03:48AM 40.3675 -74.1898 35° Northeast 431 496 21,000  Level FlightAware ADS-B
03:48AM 40.4164 -74.1436 36° Northeast 431 496 21,000  Level FlightAware ADS-B
03:49AM 40.4658 -74.0968 36° Northeast 431 496 21,000  Level FlightAware ADS-B
03:49AM 40.5148 -74.0508 36° Northeast 432 497 21,000  Level FlightAware ADS-B
03:50AM 40.5649 -74.0039 35° Northeast 432 497 21,000  Level FlightAware ADS-B
03:50AM 40.6159 -73.9562 35° Northeast 432 497 21,000  Level FlightAware ADS-B
03:51AM 40.6657 -73.9096 35° Northeast 433 498 21,000  Level FlightAware ADS-B
03:51AM 40.7153 -73.8629 36° Northeast 433 498 21,000  Level FlightAware ADS-B
03:52AM 40.7648 -73.8158 36° Northeast 435 501 21,000  Level FlightAware ADS-B
03:52AM 40.8146 -73.7683 36° Northeast 435 501 21,000  Level FlightAware ADS-B
03:53AM 40.8646 -73.7207 36° Northeast 437 503 21,000  Level FlightAware ADS-B
03:53AM 40.9148 -73.6729 36° Northeast 438 504 21,000  Level FlightAware ADS-B
03:54AM 40.9656 -73.6245 36° Northeast 439 505 21,000  Level FlightAware ADS-B
03:54AM 41.0155 -73.5769 36° Northeast 439 505 21,000 -540 Level FlightAware ADS-B
03:55AM 41.0652 -73.5294 36° Northeast 440 506 20,500 -2,040 Descending FlightAware ADS-B
03:55AM 41.1151 -73.4817 36° Northeast 442 509 19,000 -3,000 Descending FlightAware ADS-B
03:56AM 41.1648 -73.4339 36° Northeast 440 506 17,500 -2,820 Descending FlightAware ADS-B
03:56AM 41.2271 -73.3739 36° Northeast 427 491 15,800 -2,340 Descending FlightAware ADS-B
03:58AM 41.3390 -73.2660 36° Northeast 394 453 13,200 -1,440 Descending FlightAware
03:58AM 41.3860 -73.2200 36° Northeast 394 453 13,200  Level FlightAware
03:59AM 41.4460 -73.1620 36° Northeast 394 453 13,200 -2,220 Level FlightAware
03:59AM 41.4894 -73.1411 36° Northeast 369 425 10,500 -4,020 Descending Boston Center
04:00AM 41.5211 -73.1111 35° Northeast 354 407 10,200 -1,440 Descending Boston Center
04:00AM 41.5714 -73.0700 31° Northeast 332 382 9,100 -1,920 Descending Boston Center
04:01AM 41.5900 -73.0508 38° Northeast 290 334 8,300 -2,340 Descending Boston Center
04:01AM 41.6319 -73.0178 30° Northeast 297 342 6,800 -2,400 Descending Boston Center
04:02AM 41.6633 -72.9903 33° Northeast 287 330 5,900 -2,220 Descending Boston Center
04:02AM 41.7031 -72.9572 32° Northeast 283 326 4,600 -1,620 Descending Boston Center
04:03AM 41.7261 -72.9381 32° Northeast 264 304 4,300 -900 Descending Boston Center
04:03AM 41.7556 -72.9103 35° Northeast 261 300 3,700 -1,020 Descending Boston Center
04:04AM 41.7847 -72.8856 32° Northeast 256 295 3,300 -720 Descending Boston Center
04:04AM 41.8119 -72.8578 37° Northeast 255 293 3,000 -420 Descending Boston Center
04:05AM 41.8369 -72.8303 39° Northeast 229 264 2,900 -600 Descending Boston Center
04:05AM 41.8517 -72.8053 52° Northeast 224 258 2,400 -960 Descending Boston Center
04:06AM 41.8664 -72.7858 45° Northeast 166 191 2,000 -840 Descending Boston Center
04:06AM 41.8789 -72.7692 45° Northeast 178 205 1,600 -720 Descending Boston Center
04:07AM 41.8914 -72.7525 45° Northeast 125 144 1,300 -600 Descending Boston Center
04:07AM 41.9039 -72.7358 45° Northeast 136 157 1,000 -600 Descending Boston Center
04:08AM 41.9144 -72.7247 38° Northeast 118 136 700 -600 Descending Boston Center
04:08AM 41.9292 -72.7053 44° Northeast 117 135 400 -540 Descending Boston Center
04:12AM 41.9392 -72.6834 228° Southwest  Level Estimated
04:19AM 41.9333 -72.6833 228° Southwest  Level FlightAware Approximate
04:20AM 41.9392 -72.6834 228° Southwest  Level Estimated
04:21AM 41.9333 -72.6833 228° Southwest  Level FlightAware Approximate
04:22AM 41.9392 -72.6834 228° Southwest  Level Estimated
04:23AM 41.9333 -72.6833 228° Southwest  Level FlightAware Approximate